createdAt,value
2022-09-24T00:02:50.132Z,88.41
2022-09-24T00:05:53.765Z,88.74
2022-09-24T00:08:58.722Z,89.02
2022-09-24T00:12:03.464Z,89.21
2022-09-24T00:15:07.138Z,89.25
2022-09-24T00:18:11.753Z,88.81
2022-09-24T00:21:16.329Z,88.78
2022-09-24T00:24:34.525Z,89.68
2022-09-24T00:27:37.168Z,89.66
2022-09-24T00:30:40.473Z,89.15
2022-09-24T00:33:43.310Z,88.32
2022-09-24T00:36:46.717Z,88.75
2022-09-24T00:39:50.783Z,88.56
2022-09-24T00:42:53.398Z,89.36
2022-09-24T00:46:00.433Z,89.29
2022-09-24T00:49:07.254Z,89.39
2022-09-24T00:52:10.141Z,89.98
2022-09-24T00:55:15.652Z,90.08
2022-09-24T00:58:19.323Z,90.36
2022-09-24T01:01:24.629Z,90.54
2022-09-24T01:04:29.042Z,90.44
2022-09-24T01:07:31.759Z,90.19
2022-09-24T01:10:50.944Z,90.11
2022-09-24T01:14:23.893Z,89.53
2022-09-24T01:17:31.614Z,89.42
2022-09-24T01:21:16.945Z,89.06
2022-09-24T01:24:44.499Z,89.01
2022-09-24T01:28:05.986Z,88.81
2022-09-24T01:31:15.517Z,88.98
2022-09-24T01:34:26.961Z,89.39
2022-09-24T01:37:34.236Z,88.95
2022-09-24T01:40:40.570Z,89.30
2022-09-24T01:43:44.261Z,88.92
2022-09-24T01:46:48.664Z,88.95
2022-09-24T01:49:53.390Z,89.14
2022-09-24T01:53:01.295Z,89.12
2022-09-24T01:56:08.857Z,88.80
2022-09-24T01:59:15.680Z,88.29
2022-09-24T02:02:27.670Z,88.05
2022-09-24T02:05:35.443Z,88.66
2022-09-24T02:08:40.930Z,88.52
2022-09-24T02:11:44.197Z,88.67
2022-09-24T02:14:50.900Z,88.92
2022-09-24T02:17:59.073Z,89.33
2022-09-24T02:21:06.710Z,89.47
2022-09-24T02:24:15.897Z,90.21
2022-09-24T02:27:19.691Z,90.28
2022-09-24T02:30:22.563Z,90.66
2022-09-24T02:33:46.343Z,90.54
2022-09-24T02:36:50.214Z,90.90
2022-09-24T02:39:53.667Z,91.10
2022-09-24T02:42:56.295Z,90.73
2022-09-24T02:45:58.918Z,90.47
2022-09-24T02:49:02.927Z,91.11
2022-09-24T02:52:05.595Z,90.90
2022-09-24T02:55:08.834Z,90.83
2022-09-24T02:58:11.672Z,91.53
2022-09-24T03:01:14.565Z,91.17
2022-09-24T03:04:18.724Z,91.02
2022-09-24T03:07:21.775Z,91.22
2022-09-24T03:10:24.477Z,91.26
2022-09-24T03:13:27.129Z,90.87
2022-09-24T03:16:29.864Z,90.58
2022-09-24T03:19:33.901Z,90.98
2022-09-24T03:22:36.646Z,91.46
2022-09-24T03:25:39.245Z,91.99
2022-09-24T03:28:42.576Z,91.67
2022-09-24T03:31:45.486Z,91.56
2022-09-24T03:34:49.513Z,92.01
2022-09-24T03:37:52.345Z,90.71
2022-09-24T03:40:55.258Z,90.91
2022-09-24T03:43:58.165Z,91.00
2022-09-24T03:47:01.316Z,91.07
2022-09-24T03:50:05.945Z,91.42
2022-09-24T03:53:08.696Z,91.54
2022-09-24T03:56:12.743Z,91.73
2022-09-24T03:59:15.427Z,92.08
2022-09-24T04:02:18.090Z,92.49
2022-09-24T04:05:22.117Z,92.91
2022-09-24T04:08:25.949Z,92.61
2022-09-24T04:11:28.583Z,92.20
2022-09-24T04:14:31.339Z,92.64
2022-09-24T04:17:34.050Z,92.39
2022-09-24T04:20:38.638Z,92.94
2022-09-24T04:23:41.241Z,91.96
2022-09-24T04:26:43.947Z,91.71
2022-09-24T04:29:46.575Z,91.41
2022-09-24T04:32:51.254Z,91.45
2022-09-24T04:35:55.216Z,91.47
2022-09-24T04:38:57.984Z,91.84
2022-09-24T04:42:00.656Z,92.21
2022-09-24T04:45:03.778Z,92.43
2022-09-24T04:48:06.645Z,92.38
2022-09-24T04:51:10.754Z,92.85
2022-09-24T04:54:13.961Z,92.58
2022-09-24T04:57:17.297Z,92.17
2022-09-24T05:00:21.894Z,92.89
2022-09-24T05:03:24.539Z,92.50
2022-09-24T05:06:28.710Z,92.64
2022-09-24T05:09:32.098Z,92.92
2022-09-24T05:12:35.373Z,92.93
2022-09-24T05:15:42.871Z,92.83
2022-09-24T05:18:45.862Z,92.83
2022-09-24T05:21:50.005Z,92.79
2022-09-24T05:24:52.653Z,92.44
2022-09-24T05:27:56.594Z,93.01
2022-09-24T05:30:59.755Z,93.50
2022-09-24T05:34:03.531Z,93.40
2022-09-24T05:37:07.872Z,93.25
2022-09-24T05:40:31.127Z,93.21
2022-09-24T05:43:34.098Z,93.47
2022-09-24T05:46:36.773Z,93.48
2022-09-24T05:49:39.439Z,93.60
2022-09-24T05:52:43.440Z,93.10
2022-09-24T05:55:46.463Z,93.72
2022-09-24T05:58:51.211Z,93.37
2022-09-24T06:01:54.308Z,93.41
2022-09-24T06:04:57.070Z,93.84
2022-09-24T06:08:01.346Z,93.10
2022-09-24T06:11:06.422Z,93.08
2022-09-24T06:14:09.717Z,92.50
2022-09-24T06:17:12.366Z,93.23
2022-09-24T06:20:15.954Z,93.10
2022-09-24T06:23:19.945Z,93.04
2022-09-24T06:26:22.942Z,93.08
2022-09-24T06:29:25.598Z,92.45
2022-09-24T06:32:28.218Z,91.75
2022-09-24T06:35:30.835Z,91.54
2022-09-24T06:38:35.285Z,90.92
2022-09-24T06:41:37.909Z,90.94
2022-09-24T06:44:40.594Z,90.56
2022-09-24T06:47:43.207Z,89.91
2022-09-24T06:50:47.332Z,89.96
2022-09-24T06:53:53.325Z,89.73
2022-09-24T06:56:55.953Z,89.94
2022-09-24T06:59:58.538Z,89.36
2022-09-24T07:03:01.198Z,88.82
2022-09-24T07:06:05.767Z,89.16
2022-09-24T07:09:09.858Z,89.12
2022-09-24T07:12:12.842Z,88.54
2022-09-24T07:15:15.591Z,88.88
2022-09-24T07:18:19.751Z,89.02
2022-09-24T07:21:22.391Z,88.75
2022-09-24T07:24:26.386Z,88.52
2022-09-24T07:27:29.038Z,88.94
2022-09-24T07:30:32.049Z,89.14
2022-09-24T07:33:34.654Z,89.12
2022-09-24T07:36:37.518Z,88.77
2022-09-24T07:39:41.480Z,88.27
2022-09-24T07:42:48.388Z,88.18
2022-09-24T07:45:51.160Z,88.38
2022-09-24T07:48:54.258Z,88.60
2022-09-24T07:51:56.938Z,88.53
2022-09-24T07:55:01.353Z,88.14
2022-09-24T07:58:04.061Z,87.38
2022-09-24T08:01:07.176Z,87.40
2022-09-24T08:04:10.394Z,87.54
2022-09-24T08:07:14.333Z,87.70
2022-09-24T08:10:18.834Z,87.81
2022-09-24T08:13:26.731Z,87.54
2022-09-24T08:16:30.403Z,86.86
2022-09-24T08:19:33.195Z,84.31
2022-09-24T08:22:35.965Z,82.50
2022-09-24T08:25:40.134Z,81.06
2022-09-24T08:28:42.995Z,80.98
2022-09-24T08:31:45.685Z,81.93
2022-09-24T08:34:48.333Z,81.73
2022-09-24T08:37:51.181Z,81.36
2022-09-24T08:41:02.056Z,81.09
2022-09-24T08:44:09.459Z,79.78
2022-09-24T08:47:23.742Z,79.53
2022-09-24T08:50:28.906Z,77.49
2022-09-24T08:53:40.114Z,74.96
2022-09-24T08:56:47.366Z,74.68
2022-09-24T08:59:53.345Z,74.99
2022-09-24T09:03:02.607Z,75.36
2022-09-24T09:06:11.569Z,75.70
2022-09-24T09:09:19.569Z,75.82
2022-09-24T09:12:28.722Z,73.99
2022-09-24T09:15:35.359Z,73.44
2022-09-24T09:18:41.724Z,72.58
2022-09-24T09:21:52.479Z,70.37
2022-09-24T09:25:03.622Z,67.61
2022-09-24T09:28:14.994Z,68.62
2022-09-24T09:31:32.709Z,67.91
2022-09-24T09:34:51.697Z,66.92
2022-09-24T09:38:01.274Z,68.41
2022-09-24T09:41:11.429Z,70.22
2022-09-24T09:44:19.452Z,70.64
2022-09-24T09:47:31.419Z,70.91
2022-09-24T09:50:39.429Z,72.21
2022-09-24T09:53:42.439Z,73.74
2022-09-24T09:56:48.902Z,74.09
2022-09-24T09:59:54.846Z,75.33
2022-09-24T10:02:57.895Z,75.79
2022-09-24T10:06:02.822Z,77.92
2022-09-24T10:09:13.442Z,79.50
2022-09-24T10:12:18.347Z,81.55
2022-09-24T10:15:25.640Z,81.25
2022-09-24T10:18:32.714Z,82.40
2022-09-24T10:21:37.946Z,83.47
2022-09-24T10:24:44.455Z,82.80
2022-09-24T10:27:48.105Z,83.66
2022-09-24T10:30:56.969Z,83.63
2022-09-24T10:34:02.326Z,83.69
2022-09-24T10:37:15.362Z,83.10
2022-09-24T10:40:24.129Z,83.67
2022-09-24T10:43:26.816Z,84.03
2022-09-24T10:47:04.703Z,85.67
2022-09-24T10:50:25.218Z,86.31
2022-09-24T10:53:41.543Z,85.54
2022-09-24T10:56:47.610Z,86.52
2022-09-24T10:59:59.529Z,86.36
2022-09-24T11:03:34.234Z,86.86
2022-09-24T11:06:48.383Z,85.44
2022-09-24T11:09:56.523Z,83.74
2022-09-24T11:13:09.086Z,83.45
2022-09-24T11:16:43.510Z,81.89
2022-09-24T11:20:13.938Z,82.79
2022-09-24T11:23:45.294Z,82.68
2022-09-24T11:27:04.526Z,83.49
2022-09-24T11:30:13.427Z,82.86
2022-09-24T11:33:31.746Z,81.34
2022-09-24T11:36:53.282Z,82.27
2022-09-24T11:40:13.207Z,82.12
2022-09-24T11:43:36.440Z,81.86
2022-09-24T11:46:49.040Z,81.50
2022-09-24T11:50:10.989Z,79.97
2022-09-24T11:53:19.763Z,80.59
2022-09-24T11:56:29.707Z,80.35
2022-09-24T11:59:39.945Z,81.19
2022-09-24T12:02:47.316Z,81.53
2022-09-24T12:05:56.770Z,81.93
2022-09-24T12:09:08.435Z,81.30
2022-09-24T12:12:16.297Z,81.61
2022-09-24T12:15:23.983Z,82.98
2022-09-24T12:18:30.196Z,83.76
2022-09-24T12:21:40.552Z,84.02
2022-09-24T12:24:50.783Z,85.69
2022-09-24T12:27:53.980Z,88.37
2022-09-24T12:31:18.955Z,90.11
2022-09-24T12:34:31.169Z,91.33
2022-09-24T12:37:39.023Z,92.21
2022-09-24T12:41:11.096Z,93.33
2022-09-24T12:44:22.158Z,95.44
2022-09-24T12:47:28.012Z,96.64
2022-09-24T12:50:33.924Z,97.59
2022-09-24T12:53:38.974Z,98.62
2022-09-24T12:56:43.159Z,99.38
2022-09-24T12:59:51.773Z,100.00
2022-09-24T13:02:55.061Z,100.00
2022-09-24T13:06:00.142Z,100.00
2022-09-24T13:09:25.636Z,100.00
2022-09-24T13:12:35.817Z,99.23
2022-09-24T13:15:48.383Z,97.56
2022-09-24T13:19:00.886Z,97.61
2022-09-24T13:22:09.339Z,96.91
2022-09-24T13:25:23.755Z,97.79
2022-09-24T13:28:39.304Z,98.13
2022-09-24T13:31:57.991Z,98.22
2022-09-24T13:35:21.954Z,98.19
2022-09-24T13:38:46.982Z,97.90
2022-09-24T13:42:03.272Z,98.11
2022-09-24T13:45:18.025Z,98.28
2022-09-24T13:48:36.142Z,98.63
2022-09-24T13:51:48.871Z,98.41
2022-09-24T13:54:59.148Z,97.54
2022-09-24T13:58:09.193Z,97.65
2022-09-24T14:01:21.294Z,97.69
2022-09-24T14:04:30.796Z,97.67
2022-09-24T14:07:46.071Z,97.90
2022-09-24T14:10:58.150Z,98.65
2022-09-24T14:14:18.919Z,98.83
2022-09-24T14:17:25.920Z,96.91
2022-09-24T14:20:35.053Z,95.76
2022-09-24T14:23:45.351Z,95.11
2022-09-24T14:26:55.139Z,95.76
2022-09-24T14:30:04.545Z,96.48
2022-09-24T14:33:18.231Z,96.98
2022-09-24T14:36:29.503Z,96.62
2022-09-24T14:39:38.760Z,96.60
2022-09-24T14:42:46.900Z,96.57
2022-09-24T14:45:52.855Z,95.94
2022-09-24T14:49:11.137Z,95.99
2022-09-24T14:52:29.587Z,96.22
2022-09-24T14:55:42.402Z,96.17
2022-09-24T14:58:47.484Z,95.98
2022-09-24T15:01:52.589Z,95.62
2022-09-24T15:05:06.287Z,95.63
2022-09-24T15:08:25.013Z,95.49
2022-09-24T15:11:31.807Z,94.64
2022-09-24T15:14:37.249Z,94.83
2022-09-24T15:17:42.375Z,94.61
2022-09-24T15:20:48.850Z,94.01
2022-09-24T15:23:55.129Z,93.81
2022-09-24T15:27:05.494Z,93.33
2022-09-24T15:30:14.770Z,91.58
2022-09-24T15:33:19.869Z,92.48
2022-09-24T15:36:28.168Z,93.70
2022-09-24T15:39:33.195Z,93.33
2022-09-24T15:42:37.937Z,93.99
2022-09-24T15:45:42.431Z,94.85
2022-09-24T15:48:47.453Z,95.61
2022-09-24T15:51:57.403Z,96.10
2022-09-24T15:55:04.955Z,96.17
2022-09-24T15:58:18.554Z,96.56
2022-09-24T16:01:24.443Z,96.23
2022-09-24T16:04:30.725Z,96.39
2022-09-24T16:07:37.164Z,97.07
2022-09-24T16:10:42.619Z,96.72
2022-09-24T16:13:47.659Z,96.70
2022-09-24T16:16:52.414Z,96.67
2022-09-24T16:19:57.330Z,97.34
2022-09-24T16:23:01.819Z,97.45
2022-09-24T16:26:04.634Z,97.58
2022-09-24T16:29:10.004Z,98.15
2022-09-24T16:32:13.826Z,98.86
2022-09-24T16:35:16.728Z,100.00
2022-09-24T16:38:23.194Z,100.00
2022-09-24T16:41:26.150Z,100.00
2022-09-24T16:44:28.749Z,100.00
2022-09-24T16:47:31.369Z,100.00
2022-09-24T16:50:34.353Z,100.00
2022-09-24T16:53:39.013Z,100.00
2022-09-24T16:56:41.658Z,100.00
2022-09-24T16:59:44.352Z,100.00
2022-09-24T17:02:47.028Z,100.00
2022-09-24T17:05:49.791Z,100.00
2022-09-24T17:09:11.456Z,100.00
2022-09-24T17:12:14.097Z,100.00
2022-09-24T17:15:19.881Z,100.00
2022-09-24T17:18:22.538Z,100.00
2022-09-24T17:21:25.318Z,100.00
2022-09-24T17:24:30.273Z,100.00
2022-09-24T17:27:34.878Z,100.00
2022-09-24T17:30:37.936Z,100.00
2022-09-24T17:33:43.661Z,100.00
2022-09-24T17:36:48.759Z,100.00
2022-09-24T17:39:52.902Z,100.00
2022-09-24T17:42:55.558Z,100.00
2022-09-24T17:45:59.360Z,100.00
2022-09-24T17:49:05.073Z,100.00
2022-09-24T17:52:10.214Z,100.00
2022-09-24T17:55:14.262Z,100.00
2022-09-24T17:58:17.120Z,100.00
2022-09-24T18:01:21.992Z,100.00
2022-09-24T18:04:26.887Z,100.00
2022-09-24T18:07:30.566Z,100.00
2022-09-24T18:10:34.738Z,100.00
2022-09-24T18:13:37.795Z,100.00
2022-09-24T18:16:40.490Z,100.00
2022-09-24T18:19:43.262Z,100.00
2022-09-24T18:22:46.252Z,100.00
2022-09-24T18:25:50.460Z,100.00
2022-09-24T18:28:55.758Z,100.00
2022-09-24T18:31:58.630Z,100.00
2022-09-24T18:35:01.458Z,100.00
2022-09-24T18:38:04.136Z,100.00
2022-09-24T18:41:10.126Z,100.00
2022-09-24T18:44:12.881Z,100.00
2022-09-24T18:47:15.534Z,100.00
2022-09-24T18:50:18.353Z,100.00
2022-09-24T18:53:21.025Z,100.00
2022-09-24T18:56:25.785Z,100.00
2022-09-24T18:59:29.181Z,100.00
2022-09-24T19:02:32.343Z,100.00
2022-09-24T19:05:35.256Z,100.00
2022-09-24T19:08:39.339Z,100.00
2022-09-24T19:11:45.910Z,100.00
2022-09-24T19:14:49.917Z,100.00
2022-09-24T19:17:54.243Z,100.00
2022-09-24T19:20:59.106Z,100.00
2022-09-24T19:24:04.215Z,100.00
2022-09-24T19:27:09.280Z,100.00
2022-09-24T19:30:13.922Z,100.00
2022-09-24T19:33:18.460Z,100.00
2022-09-24T19:36:23.326Z,100.00
2022-09-24T19:39:27.290Z,100.00
2022-09-24T19:42:34.953Z,100.00
2022-09-24T19:45:42.617Z,100.00
2022-09-24T19:48:49.322Z,100.00
2022-09-24T19:51:54.895Z,100.00
2022-09-24T19:54:59.729Z,100.00
2022-09-24T19:58:06.215Z,100.00
2022-09-24T20:01:16.855Z,100.00
2022-09-24T20:04:22.384Z,100.00
2022-09-24T20:07:28.009Z,100.00
2022-09-24T20:10:33.329Z,100.00
2022-09-24T20:13:46.671Z,100.00
2022-09-24T20:16:51.701Z,100.00
2022-09-24T20:19:56.885Z,100.00
2022-09-24T20:23:02.127Z,100.00
2022-09-24T20:26:24.096Z,100.00
2022-09-24T20:29:31.552Z,100.00
2022-09-24T20:32:37.631Z,100.00
2022-09-24T20:35:43.680Z,100.00
2022-09-24T20:39:05.200Z,100.00
2022-09-24T20:42:10.108Z,100.00
2022-09-24T20:45:16.688Z,100.00
2022-09-24T20:48:21.854Z,100.00
2022-09-24T20:51:31.464Z,100.00
2022-09-24T20:54:34.679Z,100.00
2022-09-24T20:57:37.354Z,100.00
2022-09-24T21:00:48.535Z,100.00
2022-09-24T21:03:52.771Z,100.00
2022-09-24T21:06:55.633Z,100.00
2022-09-24T21:09:58.246Z,100.00
2022-09-24T21:13:00.864Z,100.00
2022-09-24T21:16:05.230Z,100.00
2022-09-24T21:19:08.592Z,100.00
2022-09-24T21:22:13.567Z,100.00
2022-09-24T21:25:36.135Z,100.00
2022-09-24T21:28:39.248Z,100.00
2022-09-24T21:31:45.871Z,100.00
2022-09-24T21:34:48.465Z,100.00
2022-09-24T21:37:54.539Z,100.00
2022-09-24T21:40:58.729Z,100.00
2022-09-24T21:44:03.109Z,100.00
2022-09-24T21:47:07.522Z,100.00
2022-09-24T21:50:10.859Z,100.00
2022-09-24T21:53:13.559Z,100.00
2022-09-24T21:56:18.784Z,100.00
2022-09-24T21:59:39.353Z,100.00
2022-09-24T22:02:44.889Z,100.00
2022-09-24T22:05:47.726Z,100.00
2022-09-24T22:08:51.249Z,100.00
2022-09-24T22:11:55.735Z,100.00
2022-09-24T22:14:58.435Z,100.00
2022-09-24T22:18:03.205Z,100.00
2022-09-24T22:21:08.242Z,100.00
2022-09-24T22:24:11.113Z,100.00
2022-09-24T22:27:14.042Z,100.00
2022-09-24T22:30:16.931Z,100.00
2022-09-24T22:33:38.789Z,100.00
2022-09-24T22:36:41.754Z,100.00
2022-09-24T22:39:44.438Z,100.00
2022-09-24T22:42:47.105Z,100.00
2022-09-24T22:45:50.398Z,100.00
2022-09-24T22:48:54.863Z,100.00
2022-09-24T22:51:57.477Z,100.00
2022-09-24T22:55:00.107Z,100.00
2022-09-24T22:58:02.703Z,100.00
2022-09-24T23:01:09.469Z,100.00
2022-09-24T23:04:15.322Z,100.00
2022-09-24T23:07:18.098Z,100.00
2022-09-24T23:10:20.847Z,100.00
2022-09-24T23:13:24.644Z,100.00
2022-09-24T23:16:29.690Z,100.00
2022-09-24T23:19:47.635Z,100.00
2022-09-24T23:22:50.831Z,100.00
2022-09-24T23:25:53.426Z,100.00
2022-09-24T23:29:02.476Z,100.00
2022-09-24T23:32:05.549Z,100.00
2022-09-24T23:35:10.163Z,100.00
2022-09-24T23:38:12.757Z,100.00
2022-09-24T23:41:15.747Z,100.00
2022-09-24T23:44:18.403Z,100.00
2022-09-24T23:47:21.018Z,100.00
2022-09-24T23:50:25.190Z,100.00
2022-09-24T23:53:28.385Z,100.00
2022-09-24T23:56:31.074Z,100.00
2022-09-24T23:59:34.276Z,100.00
